createdAt,value
2018-06-05T00:00:51.200Z,950.46
2018-06-05T00:01:51.192Z,950.45
2018-06-05T00:02:51.186Z,950.44
2018-06-05T00:03:51.180Z,950.45
2018-06-05T00:04:51.178Z,950.44
2018-06-05T00:05:51.173Z,950.44
2018-06-05T00:06:51.162Z,950.4
2018-06-05T00:07:51.159Z,950.47
2018-06-05T00:08:51.155Z,950.47
2018-06-05T00:09:51.145Z,950.48
2018-06-05T00:10:51.138Z,950.46
2018-06-05T00:11:51.134Z,950.45
2018-06-05T00:12:51.128Z,950.41
2018-06-05T00:13:51.120Z,950.41
2018-06-05T00:14:51.116Z,950.45
2018-06-05T00:15:51.111Z,950.4
2018-06-05T00:16:51.104Z,950.39
2018-06-05T00:17:51.097Z,950.35
2018-06-05T00:18:51.093Z,950.34
2018-06-05T00:19:51.086Z,950.33
2018-06-05T00:20:51.078Z,950.33
2018-06-05T00:21:51.075Z,950.33
2018-06-05T00:22:51.068Z,950.3
2018-06-05T00:23:51.062Z,950.29
2018-06-05T00:24:51.056Z,950.28
2018-06-05T00:25:51.049Z,950.27
2018-06-05T00:26:51.047Z,950.25
2018-06-05T00:27:51.038Z,950.24
2018-06-05T00:28:51.032Z,950.28
2018-06-05T00:29:51.027Z,950.26
2018-06-05T00:30:51.022Z,950.25
2018-06-05T00:31:51.015Z,950.26
2018-06-05T00:32:51.009Z,950.23
2018-06-05T00:33:51.003Z,950.23
2018-06-05T00:34:50.997Z,950.23
2018-06-05T00:35:50.991Z,950.25
2018-06-05T00:36:50.991Z,950.24
2018-06-05T00:37:50.983Z,950.25
2018-06-05T00:38:50.972Z,950.22
2018-06-05T00:39:50.966Z,950.22
2018-06-05T00:40:50.964Z,950.22
2018-06-05T00:41:50.954Z,950.19
2018-06-05T00:42:50.948Z,950.15
2018-06-05T00:43:50.942Z,950.17
2018-06-05T00:44:50.938Z,950.12
2018-06-05T00:45:50.930Z,950.18
2018-06-05T00:46:50.924Z,950.19
2018-06-05T00:47:50.919Z,950.18
2018-06-05T00:48:50.911Z,950.17
2018-06-05T00:49:50.905Z,950.2
2018-06-05T00:50:50.898Z,950.18
2018-06-05T00:51:50.893Z,950.19
2018-06-05T00:52:50.888Z,950.19
2018-06-05T00:53:50.881Z,950.17
2018-06-05T00:54:50.875Z,950.19
2018-06-05T00:55:50.868Z,950.16
2018-06-05T00:56:50.865Z,950.17
2018-06-05T00:57:50.855Z,950.15
2018-06-05T00:58:50.849Z,950.14
2018-06-05T00:59:50.843Z,950.18
2018-06-05T01:00:50.843Z,950.14
2018-06-05T01:01:50.830Z,950.16
2018-06-05T01:02:50.824Z,950.12
2018-06-05T01:03:50.818Z,950.13
2018-06-05T01:04:50.813Z,950.13
2018-06-05T01:05:50.807Z,950.12
2018-06-05T01:06:50.799Z,950.1
2018-06-05T01:07:50.805Z,950.14
2018-06-05T01:08:50.809Z,950.1
2018-06-05T01:09:50.782Z,950.11
2018-06-05T01:10:50.775Z,950.1
2018-06-05T01:11:50.774Z,950.06
2018-06-05T01:12:50.761Z,950.08
2018-06-05T01:13:50.761Z,950.09
2018-06-05T01:14:50.749Z,950.06
2018-06-05T01:15:50.745Z,950.06
2018-06-05T01:16:50.737Z,950.07
2018-06-05T01:17:50.732Z,950.04
2018-06-05T01:18:50.725Z,950.11
2018-06-05T01:19:50.720Z,950.08
2018-06-05T01:20:50.713Z,950.04
2018-06-05T01:21:50.707Z,950.02
2018-06-05T01:22:50.699Z,950.05
2018-06-05T01:23:50.692Z,950.06
2018-06-05T01:24:50.687Z,950.04
2018-06-05T01:25:50.681Z,950.04
2018-06-05T01:26:50.673Z,950.05
2018-06-05T01:27:50.666Z,950.09
2018-06-05T01:28:50.659Z,950.08
2018-06-05T01:29:50.655Z,950.04
2018-06-05T01:30:50.647Z,950.1
2018-06-05T01:31:50.641Z,950.06
2018-06-05T01:32:50.633Z,950.07
2018-06-05T01:33:50.628Z,950.08
2018-06-05T01:34:50.621Z,950.09
2018-06-05T01:35:50.617Z,950.1
2018-06-05T01:36:50.608Z,950.12
2018-06-05T01:37:50.601Z,950.1
2018-06-05T01:38:50.594Z,950.09
2018-06-05T01:39:50.590Z,950.1
2018-06-05T01:40:50.584Z,950.07
2018-06-05T01:41:50.576Z,950.09
2018-06-05T01:42:50.569Z,950.06
2018-06-05T01:43:50.563Z,950.06
2018-06-05T01:44:50.556Z,950.06
2018-06-05T01:45:50.552Z,950.03
2018-06-05T01:46:50.544Z,950.04
2018-06-05T01:47:50.538Z,950.01
2018-06-05T01:48:50.532Z,950.04
2018-06-05T01:49:50.535Z,950.02
2018-06-05T01:50:50.521Z,950.01
2018-06-05T01:51:50.511Z,950.01
2018-06-05T01:52:50.504Z,950.01
2018-06-05T01:53:50.499Z,949.99
2018-06-05T01:54:50.491Z,949.97
2018-06-05T01:55:50.485Z,949.98
2018-06-05T01:56:50.477Z,949.97
2018-06-05T01:57:50.471Z,949.97
2018-06-05T01:58:50.465Z,949.97
2018-06-05T01:59:50.457Z,949.94
2018-06-05T02:00:50.452Z,949.95
2018-06-05T02:01:50.452Z,949.95
2018-06-05T02:02:50.438Z,949.93
2018-06-05T02:03:50.431Z,949.94
2018-06-05T02:04:50.426Z,949.92
2018-06-05T02:05:50.419Z,949.9
2018-06-05T02:06:50.413Z,949.91
2018-06-05T02:07:50.404Z,949.88
2018-06-05T02:08:50.400Z,949.91
2018-06-05T02:09:50.393Z,949.88
2018-06-05T02:10:50.385Z,949.9
2018-06-05T02:11:50.380Z,949.92
2018-06-05T02:12:50.372Z,949.88
2018-06-05T02:13:50.365Z,949.9
2018-06-05T02:14:50.358Z,949.85
2018-06-05T02:15:50.360Z,949.88
2018-06-05T02:16:50.346Z,949.93
2018-06-05T02:17:50.343Z,949.94
2018-06-05T02:18:50.337Z,949.89
2018-06-05T02:19:50.329Z,949.92
2018-06-05T02:20:50.319Z,949.91
2018-06-05T02:21:50.311Z,949.94
2018-06-05T02:22:50.305Z,949.91
2018-06-05T02:23:50.298Z,949.89
2018-06-05T02:24:50.291Z,949.94
2018-06-05T02:25:50.284Z,949.91
2018-06-05T02:26:50.284Z,949.88
2018-06-05T02:27:50.270Z,949.86
2018-06-05T02:28:50.263Z,949.84
2018-06-05T02:29:50.256Z,949.86
2018-06-05T02:30:50.250Z,949.88
2018-06-05T02:31:50.243Z,949.9
2018-06-05T02:32:50.234Z,949.9
2018-06-05T02:33:50.228Z,949.9
2018-06-05T02:34:50.222Z,949.92
2018-06-05T02:35:50.222Z,949.93
2018-06-05T02:36:50.213Z,949.94
2018-06-05T02:37:50.203Z,949.91
2018-06-05T02:38:50.195Z,949.91
2018-06-05T02:39:50.187Z,949.94
2018-06-05T02:40:50.181Z,949.95
2018-06-05T02:41:50.173Z,949.97
2018-06-05T02:42:50.168Z,949.96
2018-06-05T02:43:50.160Z,949.97
2018-06-05T02:44:50.158Z,949.94
2018-06-05T02:45:50.150Z,949.95
2018-06-05T02:46:50.137Z,949.9
2018-06-05T02:47:50.132Z,949.95
2018-06-05T02:48:50.128Z,949.94
2018-06-05T02:49:50.119Z,950
2018-06-05T02:50:50.113Z,949.95
2018-06-05T02:51:50.106Z,949.98
2018-06-05T02:52:50.098Z,950.03
2018-06-05T02:53:50.090Z,950.07
2018-06-05T02:54:50.083Z,950.06
2018-06-05T02:55:50.078Z,950.06
2018-06-05T02:56:50.071Z,950.07
2018-06-05T02:57:50.063Z,950.1
2018-06-05T02:58:50.065Z,950.06
2018-06-05T02:59:50.051Z,950.07
2018-06-05T03:00:50.047Z,950.06
2018-06-05T03:01:50.036Z,950.09
2018-06-05T03:02:50.039Z,950.12
2018-06-05T03:03:50.030Z,950.09
2018-06-05T03:04:50.015Z,950.07
2018-06-05T03:05:50.018Z,950.09
2018-06-05T03:06:49.999Z,950.1
2018-06-05T03:07:49.996Z,950.08
2018-06-05T03:08:49.987Z,950.12
2018-06-05T03:09:49.979Z,950.14
2018-06-05T03:10:49.972Z,950.14
2018-06-05T03:11:49.966Z,950.19
2018-06-05T03:12:49.957Z,950.2
2018-06-05T03:13:49.952Z,950.16
2018-06-05T03:14:49.945Z,950.17
2018-06-05T03:15:49.938Z,950.19
2018-06-05T03:16:49.929Z,950.19
2018-06-05T03:17:49.923Z,950.2
2018-06-05T03:18:49.920Z,950.19
2018-06-05T03:19:49.908Z,950.19
2018-06-05T03:20:49.901Z,950.17
2018-06-05T03:21:49.895Z,950.18
2018-06-05T03:22:49.888Z,950.17
2018-06-05T03:23:49.892Z,950.23
2018-06-05T03:24:49.874Z,950.19
2018-06-05T03:25:49.866Z,950.18
2018-06-05T03:26:49.860Z,950.21
2018-06-05T03:27:49.853Z,950.2
2018-06-05T03:28:49.845Z,950.19
2018-06-05T03:29:49.841Z,950.22
2018-06-05T03:30:49.832Z,950.24
2018-06-05T03:31:49.825Z,950.23
2018-06-05T03:32:49.818Z,950.23
2018-06-05T03:33:49.813Z,950.26
2018-06-05T03:34:49.813Z,950.26
2018-06-05T03:35:49.800Z,950.27
2018-06-05T03:36:49.793Z,950.27
2018-06-05T03:37:49.787Z,950.27
2018-06-05T03:38:49.783Z,950.28
2018-06-05T03:39:49.776Z,950.26
2018-06-05T03:40:49.790Z,950.3
2018-06-05T03:41:49.762Z,950.35
2018-06-05T03:42:49.757Z,950.35
2018-06-05T03:43:49.752Z,950.36
2018-06-05T03:44:49.748Z,950.39
2018-06-05T03:45:49.739Z,950.33
2018-06-05T03:46:49.732Z,950.36
2018-06-05T03:47:49.727Z,950.37
2018-06-05T03:48:49.719Z,950.39
2018-06-05T03:49:49.716Z,950.37
2018-06-05T03:50:49.707Z,950.36
2018-06-05T03:51:49.703Z,950.38
2018-06-05T03:52:49.696Z,950.37
2018-06-05T03:53:49.692Z,950.39
2018-06-05T03:54:49.687Z,950.39
2018-06-05T03:55:49.678Z,950.43
2018-06-05T03:56:49.673Z,950.42
2018-06-05T03:57:49.668Z,950.43
2018-06-05T03:58:49.661Z,950.44
2018-06-05T03:59:49.653Z,950.43
2018-06-05T04:00:49.651Z,950.45
2018-06-05T04:01:49.643Z,950.47
2018-06-05T04:02:49.638Z,950.5
2018-06-05T04:03:49.631Z,950.48
2018-06-05T04:04:49.626Z,950.51
2018-06-05T04:05:49.621Z,950.51
2018-06-05T04:06:49.614Z,950.5
2018-06-05T04:07:49.608Z,950.48
2018-06-05T04:08:49.603Z,950.48
2018-06-05T04:09:49.597Z,950.49
2018-06-05T04:10:49.591Z,950.48
2018-06-05T04:11:49.588Z,950.48
2018-06-05T04:12:49.582Z,950.51
2018-06-05T04:13:49.577Z,950.51
2018-06-05T04:14:49.570Z,950.52
2018-06-05T04:15:49.566Z,950.52
2018-06-05T04:16:49.559Z,950.48
2018-06-05T04:17:49.555Z,950.51
2018-06-05T04:18:49.549Z,950.5
2018-06-05T04:19:49.542Z,950.54
2018-06-05T04:20:49.538Z,950.49
2018-06-05T04:21:49.533Z,950.49
2018-06-05T04:22:49.527Z,950.53
2018-06-05T04:23:49.523Z,950.46
2018-06-05T04:24:49.517Z,950.51
2018-06-05T04:25:49.512Z,950.52
2018-06-05T04:26:49.545Z,950.54
2018-06-05T04:27:49.500Z,950.56
2018-06-05T04:28:49.496Z,950.55
2018-06-05T04:29:49.492Z,950.61
2018-06-05T04:30:49.485Z,950.63
2018-06-05T04:31:49.480Z,950.63
2018-06-05T04:32:49.473Z,950.67
2018-06-05T04:33:49.468Z,950.69
2018-06-05T04:34:49.465Z,950.71
2018-06-05T04:35:49.460Z,950.69
2018-06-05T04:36:49.510Z,950.72
2018-06-05T04:37:49.448Z,950.75
2018-06-05T04:38:49.442Z,950.78
2018-06-05T04:39:49.439Z,950.81
2018-06-05T04:40:49.432Z,950.81
2018-06-05T04:41:49.428Z,950.79
2018-06-05T04:42:49.435Z,950.76
2018-06-05T04:43:49.428Z,950.78
2018-06-05T04:44:49.412Z,950.78
2018-06-05T04:45:49.411Z,950.77
2018-06-05T04:46:49.404Z,950.77
2018-06-05T04:47:49.442Z,950.79
2018-06-05T04:48:49.392Z,950.8
2018-06-05T04:49:49.385Z,950.8
2018-06-05T04:50:49.383Z,950.8
2018-06-05T04:51:49.377Z,950.86
2018-06-05T04:52:49.371Z,950.85
2018-06-05T04:53:49.367Z,950.91
2018-06-05T04:54:49.359Z,950.88
2018-06-05T04:55:49.356Z,950.86
2018-06-05T04:56:49.351Z,950.88
2018-06-05T04:57:49.346Z,950.89
2018-06-05T04:58:49.340Z,950.88
2018-06-05T04:59:49.339Z,950.89
2018-06-05T05:00:49.331Z,950.91
2018-06-05T05:01:49.325Z,950.91
2018-06-05T05:02:49.319Z,950.91
2018-06-05T05:03:49.315Z,950.92
2018-06-05T05:04:49.310Z,950.89
2018-06-05T05:05:49.304Z,950.92
2018-06-05T05:06:49.299Z,950.92
2018-06-05T05:07:49.293Z,950.89
2018-06-05T05:08:49.289Z,950.88
2018-06-05T05:09:49.283Z,950.96
2018-06-05T05:10:49.278Z,950.9
2018-06-05T05:11:49.274Z,950.9
2018-06-05T05:12:49.269Z,950.94
2018-06-05T05:13:49.265Z,950.95
2018-06-05T05:14:49.261Z,950.93
2018-06-05T05:15:49.255Z,950.95
2018-06-05T05:16:49.249Z,950.95
2018-06-05T05:17:49.244Z,950.92
2018-06-05T05:18:49.240Z,950.9
2018-06-05T05:19:49.236Z,950.95
2018-06-05T05:20:49.230Z,950.95
2018-06-05T05:21:49.226Z,950.95
2018-06-05T05:22:49.220Z,950.99
2018-06-05T05:23:49.216Z,950.96
2018-06-05T05:24:49.211Z,950.95
2018-06-05T05:25:49.205Z,950.93
2018-06-05T05:26:49.201Z,950.93
2018-06-05T05:27:49.195Z,950.95
2018-06-05T05:28:49.195Z,950.95
2018-06-05T05:29:49.189Z,950.95
2018-06-05T05:30:49.214Z,950.99
2018-06-05T05:31:49.176Z,950.99
2018-06-05T05:32:49.172Z,950.99
2018-06-05T05:33:49.167Z,950.98
2018-06-05T05:34:49.162Z,951
2018-06-05T05:35:49.157Z,951.01
2018-06-05T05:36:49.152Z,950.97
2018-06-05T05:37:49.147Z,951.05
2018-06-05T05:38:49.142Z,951.05
2018-06-05T05:39:49.138Z,951.03
2018-06-05T05:40:49.134Z,951.01
2018-06-05T05:41:49.129Z,951.03
2018-06-05T05:42:49.123Z,950.99
2018-06-05T05:43:49.119Z,951.01
2018-06-05T05:44:49.115Z,951.03
2018-06-05T05:45:49.111Z,951.03
2018-06-05T05:46:49.106Z,951.02
2018-06-05T05:47:49.101Z,951.03
2018-06-05T05:48:49.096Z,951.04
2018-06-05T05:49:49.097Z,951.06
2018-06-05T05:50:49.088Z,951.08
2018-06-05T05:51:49.083Z,951.09
2018-06-05T05:52:49.080Z,951.08
2018-06-05T05:53:49.073Z,951.11
2018-06-05T05:54:49.089Z,951.11
2018-06-05T05:55:49.064Z,951.12
2018-06-05T05:56:49.061Z,951.12
2018-06-05T05:57:49.056Z,951.11
2018-06-05T05:58:49.050Z,951.15
2018-06-05T05:59:49.047Z,951.15
2018-06-05T06:00:49.042Z,951.16
2018-06-05T06:01:49.038Z,951.15
2018-06-05T06:02:49.032Z,951.16
2018-06-05T06:03:49.034Z,951.17
2018-06-05T06:04:49.024Z,951.19
2018-06-05T06:05:49.020Z,951.2
2018-06-05T06:06:49.018Z,951.18
2018-06-05T06:07:49.009Z,951.18
2018-06-05T06:08:49.006Z,951.21
2018-06-05T06:09:49.002Z,951.19
2018-06-05T06:10:49.022Z,951.19
2018-06-05T06:11:48.992Z,951.21
2018-06-05T06:12:48.987Z,951.23
2018-06-05T06:13:48.983Z,951.26
2018-06-05T06:14:48.979Z,951.28
2018-06-05T06:15:48.973Z,951.31
2018-06-05T06:16:48.969Z,951.3
2018-06-05T06:17:48.964Z,951.3
2018-06-05T06:18:48.960Z,951.34
2018-06-05T06:19:48.955Z,951.31
2018-06-05T06:20:48.950Z,951.34
2018-06-05T06:21:48.946Z,951.31
2018-06-05T06:22:48.943Z,951.3
2018-06-05T06:23:48.937Z,951.34
2018-06-05T06:24:48.934Z,951.33
2018-06-05T06:25:48.929Z,951.34
2018-06-05T06:26:48.925Z,951.31
2018-06-05T06:27:48.920Z,951.34
2018-06-05T06:28:48.917Z,951.36
2018-06-05T06:29:48.914Z,951.4
2018-06-05T06:30:48.907Z,951.36
2018-06-05T06:31:48.901Z,951.38
2018-06-05T06:32:48.897Z,951.38
2018-06-05T06:33:48.892Z,951.36
2018-06-05T06:34:48.890Z,951.41
2018-06-05T06:35:48.885Z,951.42
2018-06-05T06:36:48.883Z,951.4
2018-06-05T06:37:48.876Z,951.38
2018-06-05T06:38:48.871Z,951.4
2018-06-05T06:39:48.868Z,951.37
2018-06-05T06:40:48.864Z,951.42
2018-06-05T06:41:48.858Z,951.42
2018-06-05T06:42:48.854Z,951.42
2018-06-05T06:43:48.851Z,951.42
2018-06-05T06:44:48.844Z,951.39
2018-06-05T06:45:48.841Z,951.4
2018-06-05T06:46:48.837Z,951.46
2018-06-05T06:47:48.832Z,951.44
2018-06-05T06:48:48.887Z,951.45
2018-06-05T06:49:48.823Z,951.47
2018-06-05T06:50:48.818Z,951.48
2018-06-05T06:51:48.815Z,951.45
2018-06-05T06:52:48.810Z,951.46
2018-06-05T06:53:48.805Z,951.45
2018-06-05T06:54:48.848Z,951.44
2018-06-05T06:55:48.797Z,951.45
2018-06-05T06:56:48.792Z,951.46
2018-06-05T06:57:48.790Z,951.42
2018-06-05T06:58:48.781Z,951.41
2018-06-05T06:59:48.778Z,951.43
2018-06-05T07:00:48.773Z,951.43
2018-06-05T07:01:48.773Z,951.42
2018-06-05T07:02:48.764Z,951.42
2018-06-05T07:03:48.762Z,951.42
2018-06-05T07:04:48.761Z,951.41
2018-06-05T07:05:48.752Z,951.44
2018-06-05T07:06:48.747Z,951.44
2018-06-05T07:07:48.743Z,951.41
2018-06-05T07:08:48.740Z,951.43
2018-06-05T07:09:48.732Z,951.42
2018-06-05T07:10:48.730Z,951.43
2018-06-05T07:11:48.727Z,951.4
2018-06-05T07:12:48.721Z,951.41
2018-06-05T07:13:48.717Z,951.45
2018-06-05T07:14:48.712Z,951.43
2018-06-05T07:15:48.709Z,951.4
2018-06-05T07:16:48.705Z,951.45
2018-06-05T07:17:48.700Z,951.46
2018-06-05T07:18:48.696Z,951.46
2018-06-05T07:19:48.692Z,951.5
2018-06-05T07:20:48.688Z,951.47
2018-06-05T07:21:48.681Z,951.5
2018-06-05T07:22:48.682Z,951.49
2018-06-05T07:23:48.679Z,951.52
2018-06-05T07:24:48.669Z,951.49
2018-06-05T07:25:48.666Z,951.51
2018-06-05T07:26:48.662Z,951.49
2018-06-05T07:27:48.660Z,951.51
2018-06-05T07:28:48.651Z,951.51
2018-06-05T07:29:48.648Z,951.5
2018-06-05T07:30:48.644Z,951.53
2018-06-05T07:31:48.640Z,951.55
2018-06-05T07:32:48.636Z,951.54
2018-06-05T07:33:48.632Z,951.57
2018-06-05T07:34:48.628Z,951.56
2018-06-05T07:35:48.693Z,951.55
2018-06-05T07:36:48.621Z,951.55
2018-06-05T07:37:48.617Z,951.55
2018-06-05T07:38:48.613Z,951.54
2018-06-05T07:39:48.609Z,951.59
2018-06-05T07:40:48.606Z,951.55
2018-06-05T07:41:48.603Z,951.51
2018-06-05T07:42:48.598Z,951.53
2018-06-05T07:43:48.594Z,951.48
2018-06-05T07:44:48.593Z,951.48
2018-06-05T07:45:48.593Z,951.5
2018-06-05T07:46:48.585Z,951.49
2018-06-05T07:47:48.581Z,951.45
2018-06-05T07:48:48.579Z,951.47
2018-06-05T07:49:48.577Z,951.47
2018-06-05T07:50:48.572Z,951.51
2018-06-05T07:51:48.569Z,951.52
2018-06-05T07:52:48.566Z,951.54
2018-06-05T07:53:48.562Z,951.57
2018-06-05T07:54:48.559Z,951.58
2018-06-05T07:55:48.558Z,951.55
2018-06-05T07:56:48.556Z,951.53
2018-06-05T07:57:48.550Z,951.53
2018-06-05T07:58:48.550Z,951.57
2018-06-05T07:59:48.545Z,951.53
2018-06-05T08:00:48.543Z,951.56
2018-06-05T08:01:48.539Z,951.52
2018-06-05T08:02:48.536Z,951.53
2018-06-05T08:03:48.534Z,951.49
2018-06-05T08:04:48.534Z,951.51
2018-06-05T08:05:48.528Z,951.52
2018-06-05T08:06:48.527Z,951.54
2018-06-05T08:07:48.524Z,951.57
2018-06-05T08:08:48.522Z,951.55
2018-06-05T08:09:48.518Z,951.58
2018-06-05T08:10:48.517Z,951.55
2018-06-05T08:11:48.579Z,951.57
2018-06-05T08:12:48.511Z,951.55
2018-06-05T08:13:48.509Z,951.56
2018-06-05T08:14:48.508Z,951.57
2018-06-05T08:15:48.509Z,951.59
2018-06-05T08:16:48.502Z,951.6
2018-06-05T08:17:48.499Z,951.59
2018-06-05T08:18:48.499Z,951.59
2018-06-05T08:19:48.496Z,951.64
2018-06-05T08:20:48.492Z,951.61
2018-06-05T08:21:48.490Z,951.62
2018-06-05T08:22:48.490Z,951.62
2018-06-05T08:23:48.489Z,951.62
2018-06-05T08:24:48.487Z,951.62
2018-06-05T08:25:48.485Z,951.64
2018-06-05T08:26:48.483Z,951.61
2018-06-05T08:27:48.481Z,951.64
2018-06-05T08:28:48.479Z,951.63
2018-06-05T08:29:48.478Z,951.62
2018-06-05T08:30:48.475Z,951.64
2018-06-05T08:31:48.473Z,951.66
2018-06-05T08:32:48.471Z,951.64
2018-06-05T08:33:48.470Z,951.66
2018-06-05T08:34:48.468Z,951.73
2018-06-05T08:35:48.467Z,951.7
2018-06-05T08:36:48.464Z,951.69
2018-06-05T08:37:48.558Z,951.75
2018-06-05T08:38:48.471Z,951.73
2018-06-05T08:39:48.467Z,951.74
2018-06-05T08:40:48.462Z,951.71
2018-06-05T08:41:48.454Z,951.72
2018-06-05T08:42:48.454Z,951.78
2018-06-05T08:43:48.453Z,951.74
2018-06-05T08:44:48.451Z,951.72
2018-06-05T08:45:48.451Z,951.74
2018-06-05T08:46:48.446Z,951.74
2018-06-05T08:47:48.444Z,951.75
2018-06-05T08:48:48.443Z,951.73
2018-06-05T08:49:48.440Z,951.76
2018-06-05T08:50:48.439Z,951.78
2018-06-05T08:51:48.441Z,951.79
2018-06-05T08:52:48.436Z,951.76
2018-06-05T08:53:48.434Z,951.79
2018-06-05T08:54:48.433Z,951.83
2018-06-05T08:55:48.431Z,951.79
2018-06-05T08:56:48.429Z,951.8
2018-06-05T08:57:48.429Z,951.79
2018-06-05T08:58:48.426Z,951.77
2018-06-05T08:59:48.428Z,951.72
2018-06-05T09:00:48.423Z,951.69
2018-06-05T09:01:48.425Z,951.69
2018-06-05T09:02:48.423Z,951.71
2018-06-05T09:03:48.422Z,951.72
2018-06-05T09:04:48.422Z,951.68
2018-06-05T09:05:48.422Z,951.72
2018-06-05T09:06:48.420Z,951.75
2018-06-05T09:07:48.419Z,951.72
2018-06-05T09:08:48.419Z,951.77
2018-06-05T09:09:48.419Z,951.77
2018-06-05T09:10:48.474Z,951.79
2018-06-05T09:11:48.420Z,951.83
2018-06-05T09:12:48.465Z,951.86
2018-06-05T09:13:48.421Z,951.8
2018-06-05T09:14:48.417Z,951.88
2018-06-05T09:15:48.425Z,951.87
2018-06-05T09:16:48.420Z,951.85
2018-06-05T09:17:48.424Z,951.91
2018-06-05T09:18:48.420Z,951.88
2018-06-05T09:19:48.421Z,951.85
2018-06-05T09:20:48.422Z,951.87
2018-06-05T09:21:48.422Z,951.87
2018-06-05T09:22:48.421Z,951.86
2018-06-05T09:23:48.422Z,951.9
2018-06-05T09:24:48.423Z,951.87
2018-06-05T09:25:48.424Z,951.98
2018-06-05T09:26:48.423Z,951.9
2018-06-05T09:27:48.423Z,951.92
2018-06-05T09:28:48.424Z,951.92
2018-06-05T09:29:48.428Z,951.94
2018-06-05T09:30:48.424Z,951.92
2018-06-05T09:31:48.427Z,951.94
2018-06-05T09:32:48.429Z,952
2018-06-05T09:33:48.426Z,951.98
2018-06-05T09:34:48.428Z,952
2018-06-05T09:35:48.430Z,951.99
2018-06-05T09:36:48.432Z,952.03
2018-06-05T09:37:48.430Z,952.05
2018-06-05T09:38:48.430Z,952.02
2018-06-05T09:39:48.430Z,952.08
2018-06-05T09:40:48.430Z,952.05
2018-06-05T09:41:48.431Z,952.05
2018-06-05T09:42:48.432Z,952.03
2018-06-05T09:43:48.432Z,952.05
2018-06-05T09:44:48.433Z,952.02
2018-06-05T09:45:48.434Z,952.07
2018-06-05T09:46:48.476Z,952.06
2018-06-05T09:47:48.433Z,952.03
2018-06-05T09:48:48.434Z,952.05
2018-06-05T09:49:48.455Z,952.02
2018-06-05T09:50:48.436Z,952.02
2018-06-05T09:51:48.436Z,952
2018-06-05T09:52:48.437Z,952.04
2018-06-05T09:53:48.438Z,952.03
2018-06-05T09:54:48.438Z,952.03
2018-06-05T09:55:48.439Z,952.03
2018-06-05T09:56:48.441Z,952.04
2018-06-05T09:57:48.505Z,952.04
2018-06-05T09:58:48.443Z,951.97
2018-06-05T09:59:48.443Z,952.06
2018-06-05T10:00:48.444Z,952.08
2018-06-05T10:01:48.445Z,952.09
2018-06-05T10:02:48.444Z,952.11
2018-06-05T10:03:48.578Z,952.05
2018-06-05T10:04:48.447Z,952.06
2018-06-05T10:05:48.447Z,952.02
2018-06-05T10:06:48.448Z,952.02
2018-06-05T10:07:48.448Z,952.01
2018-06-05T10:08:48.449Z,952.03
2018-06-05T10:09:48.452Z,952.09
2018-06-05T10:10:48.450Z,952.06
2018-06-05T10:11:48.451Z,952.12
2018-06-05T10:12:48.451Z,952.07
2018-06-05T10:13:48.452Z,952.08
2018-06-05T10:14:48.453Z,952.06
2018-06-05T10:15:48.453Z,952.07
2018-06-05T10:16:48.455Z,952.01
2018-06-05T10:17:48.455Z,952.03
2018-06-05T10:18:48.455Z,952.02
2018-06-05T10:19:48.456Z,951.98
2018-06-05T10:20:48.458Z,951.99
2018-06-05T10:21:48.458Z,952
2018-06-05T10:22:48.459Z,951.98
2018-06-05T10:23:48.460Z,951.89
2018-06-05T10:24:48.461Z,951.96
2018-06-05T10:25:48.463Z,952
2018-06-05T10:26:48.464Z,951.89
2018-06-05T10:27:48.470Z,951.89
2018-06-05T10:28:48.468Z,951.93
2018-06-05T10:29:48.466Z,951.87
2018-06-05T10:30:48.467Z,951.85
2018-06-05T10:31:48.471Z,951.85
2018-06-05T10:32:48.470Z,951.84
2018-06-05T10:33:48.471Z,951.92
2018-06-05T10:34:48.519Z,951.86
2018-06-05T10:35:48.481Z,951.86
2018-06-05T10:36:48.474Z,951.83
2018-06-05T10:37:48.475Z,951.82
2018-06-05T10:38:48.476Z,951.8
2018-06-05T10:39:48.477Z,951.9
2018-06-05T10:40:48.479Z,951.85
2018-06-05T10:41:48.479Z,951.87
2018-06-05T10:42:48.480Z,951.84
2018-06-05T10:43:48.482Z,951.84
2018-06-05T10:44:48.484Z,951.81
2018-06-05T10:45:48.484Z,951.81
2018-06-05T10:46:48.544Z,951.83
2018-06-05T10:47:48.486Z,951.81
2018-06-05T10:48:48.490Z,951.81
2018-06-05T10:49:48.490Z,951.78
2018-06-05T10:50:48.491Z,951.76
2018-06-05T10:51:48.493Z,951.79
2018-06-05T10:52:48.494Z,951.78
2018-06-05T10:53:48.554Z,951.77
2018-06-05T10:54:48.501Z,951.78
2018-06-05T10:55:48.504Z,951.79
2018-06-05T10:56:48.501Z,951.81
2018-06-05T10:57:48.501Z,951.88
2018-06-05T10:58:48.503Z,951.84
2018-06-05T10:59:48.504Z,951.86
2018-06-05T11:00:48.506Z,951.88
2018-06-05T11:01:48.512Z,951.84
2018-06-05T11:02:48.511Z,951.81
2018-06-05T11:03:48.512Z,951.8
2018-06-05T11:04:48.513Z,951.8
2018-06-05T11:05:48.513Z,951.85
2018-06-05T11:06:48.515Z,951.8
2018-06-05T11:07:48.516Z,951.82
2018-06-05T11:08:48.519Z,951.82
2018-06-05T11:09:48.519Z,951.82
2018-06-05T11:10:48.546Z,951.81
2018-06-05T11:11:48.524Z,951.83
2018-06-05T11:12:48.580Z,951.86
2018-06-05T11:13:48.527Z,951.85
2018-06-05T11:14:48.527Z,951.86
2018-06-05T11:15:48.529Z,951.79
2018-06-05T11:16:48.533Z,951.77
2018-06-05T11:17:48.532Z,951.77
2018-06-05T11:18:48.532Z,951.8
2018-06-05T11:19:48.533Z,951.76
2018-06-05T11:20:48.536Z,951.81
2018-06-05T11:21:48.540Z,951.78
2018-06-05T11:22:48.537Z,951.78
2018-06-05T11:23:48.557Z,951.73
2018-06-05T11:24:48.542Z,951.72
2018-06-05T11:25:48.542Z,951.78
2018-06-05T11:26:48.542Z,951.81
2018-06-05T11:27:48.544Z,951.83
2018-06-05T11:28:48.546Z,951.79
2018-06-05T11:29:48.545Z,951.82
2018-06-05T11:30:48.546Z,951.83
2018-06-05T11:31:48.548Z,951.82
2018-06-05T11:32:48.551Z,951.82
2018-06-05T11:33:48.549Z,951.83
2018-06-05T11:34:48.551Z,951.84
2018-06-05T11:35:48.555Z,951.81
2018-06-05T11:36:48.606Z,951.79
2018-06-05T11:37:48.554Z,951.77
2018-06-05T11:38:48.554Z,951.78
2018-06-05T11:39:48.555Z,951.84
2018-06-05T11:40:48.556Z,951.82
2018-06-05T11:41:48.557Z,951.8
2018-06-05T11:42:48.558Z,951.82
2018-06-05T11:43:48.558Z,951.78
2018-06-05T11:44:48.561Z,951.77
2018-06-05T11:45:48.561Z,951.78
2018-06-05T11:46:48.603Z,951.74
2018-06-05T11:47:48.625Z,951.72
2018-06-05T11:48:48.581Z,951.73
2018-06-05T11:49:48.567Z,951.77
2018-06-05T11:50:48.565Z,951.73
2018-06-05T11:51:48.565Z,951.77
2018-06-05T11:52:48.567Z,951.78
2018-06-05T11:53:48.567Z,951.78
2018-06-05T11:54:48.566Z,951.78
2018-06-05T11:55:48.598Z,951.78
2018-06-05T11:56:48.571Z,951.77
2018-06-05T11:57:48.571Z,951.8
2018-06-05T11:58:48.571Z,951.8
2018-06-05T11:59:48.571Z,951.79
2018-06-05T12:00:48.614Z,951.74
2018-06-05T12:01:48.593Z,951.71
2018-06-05T12:02:48.573Z,951.72
2018-06-05T12:03:48.576Z,951.73
2018-06-05T12:04:48.579Z,951.7
2018-06-05T12:05:48.576Z,951.69
2018-06-05T12:06:48.577Z,951.67
2018-06-05T12:07:48.579Z,951.71
2018-06-05T12:08:48.581Z,951.67
2018-06-05T12:09:48.580Z,951.7
2018-06-05T12:10:48.582Z,951.69
2018-06-05T12:11:48.585Z,951.67
2018-06-05T12:12:48.585Z,951.7
2018-06-05T12:13:48.594Z,951.66
2018-06-05T12:14:48.587Z,951.68
2018-06-05T12:15:48.590Z,951.7
2018-06-05T12:16:48.592Z,951.62
2018-06-05T12:17:48.694Z,951.67
2018-06-05T12:18:48.594Z,951.53
2018-06-05T12:19:48.594Z,951.54
2018-06-05T12:20:48.594Z,951.59
2018-06-05T12:21:48.597Z,951.52
2018-06-05T12:22:48.598Z,951.51
2018-06-05T12:23:48.599Z,951.57
2018-06-05T12:24:48.601Z,951.49
2018-06-05T12:25:48.601Z,951.49
2018-06-05T12:26:48.605Z,951.47
2018-06-05T12:27:48.603Z,951.46
2018-06-05T12:28:48.607Z,951.41
2018-06-05T12:29:48.607Z,951.44
2018-06-05T12:30:48.608Z,951.44
2018-06-05T12:31:48.609Z,951.42